Time;durP1;ratioP1;P1;durP2;ratioP2;P2;SDS_P1;SDS_P2;PMS_P1;PMS_P2;Temp;Humidity;BMP_temperature;BMP_pressure;BME280_temperature;BME280_humidity;BME280_pressure;Samples;Min_cycle;Max_cycle;Signal;HPM_P1;HPM_P2
2021/11/14 00:01:24;;;;;;;18.93;9.40;;;7.80;97.30;;;;;;5012165;28;20476;-82
2021/11/14 00:03:50;;;;;;;17.90;9.43;;;7.80;97.30;;;;;;5013782;28;20519;-82
2021/11/14 00:06:20;;;;;;;19.87;9.80;;;7.80;97.30;;;;;;5013361;28;20817;-82
2021/11/14 00:08:47;;;;;;;18.73;9.30;;;7.80;97.30;;;;;;5013553;28;20420;-82
2021/11/14 00:11:14;;;;;;;25.97;10.13;;;7.80;97.30;;;;;;5013602;28;20404;-82
2021/11/14 00:13:42;;;;;;;15.73;8.67;;;7.80;97.30;;;;;;5013546;28;20938;-82
2021/11/14 00:16:10;;;;;;;22.20;9.93;;;7.70;97.30;;;;;;5014302;28;20464;-82
2021/11/14 00:18:37;;;;;;;39.83;17.67;;;7.70;97.30;;;;;;5013549;28;20450;-82
2021/11/14 00:21:03;;;;;;;32.27;14.43;;;7.70;97.30;;;;;;5016254;28;20416;-82
2021/11/14 00:23:28;;;;;;;35.50;16.47;;;7.70;97.30;;;;;;5017259;28;20479;-82
2021/11/14 00:25:54;;;;;;;22.67;10.50;;;7.70;97.30;;;;;;5017513;28;20213;-82
2021/11/14 00:28:20;;;;;;;24.73;11.43;;;7.70;97.30;;;;;;5016842;28;20634;-82
2021/11/14 00:30:45;;;;;;;26.00;11.00;;;7.70;97.30;;;;;;5017469;28;20275;-82
2021/11/14 00:33:12;;;;;;;21.23;10.33;;;7.70;97.30;;;;;;5018382;28;20233;-82
2021/11/14 00:35:39;;;;;;;21.37;10.70;;;7.70;97.30;;;;;;5017080;28;20224;-82
2021/11/14 00:38:06;;;;;;;17.67;9.30;;;7.60;97.30;;;;;;5016974;28;20419;-82
2021/11/14 00:40:33;;;;;;;17.47;9.53;;;7.70;97.30;;;;;;5016619;28;20424;-82
2021/11/14 00:43:00;;;;;;;21.30;10.13;;;7.70;97.30;;;;;;5016780;28;20400;-82
2021/11/14 00:45:28;;;;;;;18.33;8.67;;;7.60;97.30;;;;;;5017016;28;20479;-82
2021/11/14 00:47:55;;;;;;;19.20;9.33;;;7.60;97.30;;;;;;5016778;28;20452;-82
2021/11/14 00:50:21;;;;;;;18.20;10.43;;;7.60;97.30;;;;;;5016883;28;20453;-82
2021/11/14 00:52:46;;;;;;;25.30;10.40;;;7.60;97.30;;;;;;5016740;28;20416;-82
2021/11/14 00:55:15;;;;;;;20.50;10.13;;;7.60;97.30;;;;;;5016637;28;20781;-83
2021/11/14 00:57:41;;;;;;;17.17;8.87;;;7.70;97.30;;;;;;5016425;28;20260;-82
2021/11/14 01:00:11;;;;;;;17.13;9.10;;;7.70;97.30;;;;;;5016721;28;20518;-82
2021/11/14 01:02:38;;;;;;;18.80;8.83;;;7.70;97.30;;;;;;5016839;28;20177;-82
2021/11/14 01:05:07;;;;;;;19.83;9.83;;;7.70;97.30;;;;;;5016495;28;20527;-82
2021/11/14 01:07:34;;;;;;;19.60;10.03;;;7.60;97.30;;;;;;5015840;28;20952;-82
2021/11/14 01:10:00;;;;;;;16.90;10.07;;;7.70;97.30;;;;;;5016216;28;20470;-82
2021/11/14 01:12:25;;;;;;;18.80;9.20;;;7.70;97.30;;;;;;5014983;28;20416;-82
2021/11/14 01:14:51;;;;;;;20.47;11.10;;;7.70;97.30;;;;;;5014787;28;20220;-82
2021/11/14 01:17:18;;;;;;;22.13;9.70;;;7.60;97.30;;;;;;5014828;28;20802;-82
2021/11/14 01:19:45;;;;;;;18.13;8.87;;;7.60;97.30;;;;;;5015517;28;20181;-82
2021/11/14 01:22:11;;;;;;;24.53;11.27;;;7.60;97.30;;;;;;5014470;28;20424;-82
2021/11/14 01:24:37;;;;;;;16.73;8.50;;;7.60;97.30;;;;;;5014625;28;20780;-82
2021/11/14 01:27:03;;;;;;;23.13;10.43;;;7.60;97.30;;;;;;5016119;28;20196;-82
2021/11/14 01:29:29;;;;;;;21.67;10.53;;;7.60;97.30;;;;;;5016025;28;20420;-82
2021/11/14 01:31:54;;;;;;;15.40;8.80;;;7.60;97.30;;;;;;5015102;28;20431;-82
2021/11/14 01:34:20;;;;;;;23.90;9.37;;;7.60;97.30;;;;;;5013586;28;20186;-82
2021/11/14 01:36:46;;;;;;;17.63;9.57;;;7.60;97.30;;;;;;5014494;28;20298;-82
2021/11/14 01:39:11;;;;;;;24.63;9.90;;;7.60;97.30;;;;;;5015763;28;20169;-82
2021/11/14 01:41:37;;;;;;;18.73;9.30;;;7.60;97.30;;;;;;5014163;28;20177;-82
2021/11/14 01:44:04;;;;;;;18.27;8.20;;;7.60;97.30;;;;;;5014623;28;20542;-82
2021/11/14 01:46:30;;;;;;;19.70;9.87;;;7.60;97.30;;;;;;5014666;28;20515;-82
2021/11/14 01:48:56;;;;;;;18.63;9.23;;;7.60;97.30;;;;;;5015945;28;20504;-82
2021/11/14 01:51:22;;;;;;;21.93;8.37;;;7.60;97.30;;;;;;5015650;28;20185;-83
2021/11/14 01:53:49;;;;;;;18.67;9.10;;;7.60;97.30;;;;;;5015294;28;20428;-82
2021/11/14 01:56:16;;;;;;;16.27;8.47;;;7.60;97.30;;;;;;5015524;28;20468;-82
2021/11/14 01:58:43;;;;;;;16.43;9.07;;;7.60;97.30;;;;;;5015207;28;20462;-82
2021/11/14 02:01:14;;;;;;;15.07;8.73;;;7.60;97.30;;;;;;5015756;28;20440;-82
2021/11/14 02:03:44;;;;;;;16.43;9.17;;;7.60;97.30;;;;;;5015064;28;20443;-82
2021/11/14 02:06:10;;;;;;;20.40;9.27;;;7.60;97.30;;;;;;5017674;28;20789;-82
2021/11/14 02:08:38;;;;;;;17.07;8.97;;;7.60;97.30;;;;;;5016122;28;20416;-82
2021/11/14 02:11:05;;;;;;;18.60;8.70;;;7.50;97.30;;;;;;5015637;28;20930;-82
2021/11/14 02:13:31;;;;;;;18.20;8.87;;;7.50;97.30;;;;;;5015721;28;20416;-82
2021/11/14 02:15:58;;;;;;;20.07;8.77;;;7.50;97.30;;;;;;5016358;28;20476;-82
2021/11/14 02:18:24;;;;;;;15.87;8.57;;;7.50;97.30;;;;;;5016188;28;20961;-82
2021/11/14 02:20:50;;;;;;;16.53;8.17;;;7.50;97.30;;;;;;5016270;28;20426;-82
2021/11/14 02:23:19;;;;;;;20.90;9.40;;;7.60;97.30;;;;;;5016469;28;20412;-82
2021/11/14 02:25:47;;;;;;;21.77;9.00;;;7.50;97.30;;;;;;5016251;28;20484;-82
2021/11/14 02:28:15;;;;;;;21.30;9.73;;;7.50;97.30;;;;;;5015620;28;20972;-82
2021/11/14 02:30:42;;;;;;;18.27;8.53;;;7.50;97.30;;;;;;5017495;28;20412;-82
2021/11/14 02:33:09;;;;;;;18.17;8.60;;;7.50;97.30;;;;;;5015807;28;20838;-83
2021/11/14 02:35:35;;;;;;;21.30;9.83;;;7.50;97.30;;;;;;5015287;28;20471;-82
2021/11/14 02:38:01;;;;;;;22.20;11.50;;;7.50;97.30;;;;;;5015208;28;20413;-82
2021/11/14 02:40:27;;;;;;;16.43;8.63;;;7.50;97.30;;;;;;5015120;28;20512;-82
2021/11/14 02:42:54;;;;;;;20.50;9.20;;;7.50;97.30;;;;;;5014880;28;20448;-82
2021/11/14 02:45:22;;;;;;;17.30;8.73;;;7.50;97.30;;;;;;5013689;28;20865;-82
2021/11/14 02:47:52;;;;;;;18.90;9.73;;;7.50;97.30;;;;;;5014583;28;20845;-82
2021/11/14 02:50:19;;;;;;;24.07;10.20;;;7.50;97.30;;;;;;5015860;28;20408;-82
2021/11/14 02:52:45;;;;;;;19.13;10.30;;;7.50;97.30;;;;;;5014660;28;20794;-82
2021/11/14 02:55:15;;;;;;;23.63;9.03;;;7.50;97.30;;;;;;5014222;28;20432;-82
2021/11/14 02:57:41;;;;;;;17.43;8.83;;;7.50;97.30;;;;;;5014778;28;20637;-83
2021/11/14 03:00:11;;;;;;;17.20;8.90;;;7.50;97.30;;;;;;5014220;28;20927;-82
2021/11/14 03:02:37;;;;;;;16.50;8.60;;;7.50;97.30;;;;;;5014020;28;20177;-83
2021/11/14 03:05:11;;;;;;;19.87;9.60;;;7.50;97.30;;;;;;5015263;28;20427;-83
2021/11/14 03:07:37;;;;;;;18.70;8.80;;;7.50;97.30;;;;;;5015388;28;20161;-82
2021/11/14 03:10:05;;;;;;;18.27;9.60;;;7.50;97.30;;;;;;5013926;28;20552;-82
2021/11/14 03:12:31;;;;;;;16.87;9.70;;;7.50;97.30;;;;;;5014322;28;20635;-82
2021/11/14 03:14:58;;;;;;;18.60;8.80;;;7.50;97.30;;;;;;5014036;28;20531;-82
2021/11/14 03:17:24;;;;;;;22.43;10.60;;;7.50;97.30;;;;;;5014100;28;20424;-83
2021/11/14 03:19:50;;;;;;;21.67;9.50;;;7.50;97.30;;;;;;5014127;28;20416;-82
2021/11/14 03:22:15;;;;;;;22.30;10.43;;;7.50;97.30;;;;;;5014295;28;20181;-83
2021/11/14 03:24:41;;;;;;;18.33;10.17;;;7.50;97.30;;;;;;5013815;28;20507;-83
2021/11/14 03:27:07;;;;;;;24.40;10.07;;;7.50;97.30;;;;;;5014266;28;20195;-82
2021/11/14 03:29:32;;;;;;;17.97;9.00;;;7.50;97.30;;;;;;5013872;28;20444;-82
2021/11/14 03:31:58;;;;;;;17.10;8.37;;;7.50;97.30;;;;;;5013766;28;20211;-82
2021/11/14 03:34:23;;;;;;;19.00;9.33;;;7.50;97.30;;;;;;5013677;28;20273;-83
2021/11/14 03:36:49;;;;;;;17.97;9.53;;;7.50;97.30;;;;;;5013423;28;20231;-82
2021/11/14 03:39:15;;;;;;;16.03;8.87;;;7.50;97.30;;;;;;5013922;28;20180;-83
2021/11/14 03:41:41;;;;;;;22.40;9.97;;;7.50;97.30;;;;;;5013914;28;20184;-83
2021/11/14 03:44:08;;;;;;;20.13;9.90;;;7.50;97.30;;;;;;5013429;28;20230;-82
2021/11/14 03:46:34;;;;;;;21.83;11.23;;;7.50;97.30;;;;;;5015022;28;20981;-83
2021/11/14 03:49:01;;;;;;;19.57;9.60;;;7.50;97.30;;;;;;5013828;28;20420;-82
2021/11/14 03:51:27;;;;;;;19.13;11.47;;;7.50;97.30;;;;;;5014137;28;20586;-83
2021/11/14 03:53:54;;;;;;;24.37;10.77;;;7.50;97.30;;;;;;5013730;28;20420;-82
2021/11/14 03:56:20;;;;;;;22.40;11.03;;;7.50;97.30;;;;;;5012966;28;20475;-82
2021/11/14 03:58:46;;;;;;;23.37;10.90;;;7.50;97.30;;;;;;5013930;28;20416;-83
2021/11/14 04:01:15;;;;;;;24.40;10.57;;;7.50;97.30;;;;;;5013465;28;20763;-83
2021/11/14 04:03:41;;;;;;;22.17;10.90;;;7.50;97.30;;;;;;5013672;28;20655;-83
2021/11/14 04:06:07;;;;;;;25.20;10.70;;;7.50;97.30;;;;;;5014467;28;20511;-82
2021/11/14 04:08:34;;;;;;;20.80;9.87;;;7.50;97.30;;;;;;5013736;28;20280;-82
2021/11/14 04:11:02;;;;;;;20.87;10.33;;;7.50;97.30;;;;;;5013028;28;20423;-83
2021/11/14 04:13:34;;;;;;;24.20;12.10;;;7.50;97.30;;;;;;4996958;28;20566;-82
2021/11/14 04:16:06;;;;;;;21.70;11.00;;;7.50;97.30;;;;;;5013415;28;20472;-82
2021/11/14 04:18:32;;;;;;;22.90;10.53;;;7.50;97.30;;;;;;5014775;28;20427;-82
2021/11/14 04:20:58;;;;;;;32.60;10.97;;;7.50;97.30;;;;;;5013208;28;20435;-82
2021/11/14 04:23:24;;;;;;;19.53;10.20;;;7.50;97.30;;;;;;5014306;28;20400;-82
2021/11/14 04:25:50;;;;;;;20.87;10.43;;;7.50;97.30;;;;;;5014515;28;20283;-82
2021/11/14 04:28:18;;;;;;;21.27;9.73;;;7.50;97.30;;;;;;5012913;28;20455;-82
2021/11/14 04:30:46;;;;;;;23.50;10.00;;;7.50;97.30;;;;;;5013439;28;20181;-82
2021/11/14 04:33:13;;;;;;;27.20;11.77;;;7.50;97.30;;;;;;5013066;28;20855;-81
2021/11/14 04:35:39;;;;;;;20.17;11.37;;;7.50;97.30;;;;;;5013218;28;20475;-82
2021/11/14 04:38:05;;;;;;;24.73;10.97;;;7.50;97.30;;;;;;5013474;28;20515;-82
2021/11/14 04:40:37;;;;;;;21.07;10.10;;;7.50;97.30;;;;;;5013363;28;20426;-82
2021/11/14 04:43:04;;;;;;;24.33;9.67;;;7.50;97.30;;;;;;5013297;28;20408;-82
2021/11/14 04:45:29;;;;;;;24.13;10.47;;;7.50;97.30;;;;;;5013556;28;20448;-82
2021/11/14 04:47:55;;;;;;;23.17;10.13;;;7.50;97.30;;;;;;5014017;28;20488;-82
2021/11/14 04:50:21;;;;;;;24.50;10.83;;;7.50;97.30;;;;;;5013245;28;20216;-82
2021/11/14 04:52:47;;;;;;;20.10;9.83;;;7.50;97.30;;;;;;5013333;28;20192;-82
2021/11/14 04:55:13;;;;;;;27.90;11.00;;;7.50;97.30;;;;;;5013191;28;20676;-82
2021/11/14 04:57:38;;;;;;;19.87;10.03;;;7.50;97.30;;;;;;5013148;28;20181;-82
2021/11/14 05:00:12;;;;;;;20.73;11.30;;;7.50;97.30;;;;;;5012520;28;20420;-82
2021/11/14 05:02:38;;;;;;;20.60;9.20;;;7.40;97.30;;;;;;5014651;28;20215;-82
2021/11/14 05:05:05;;;;;;;22.57;11.10;;;7.50;97.30;;;;;;5012786;28;21025;-82
2021/11/14 05:07:31;;;;;;;21.07;10.63;;;7.50;97.30;;;;;;5013910;28;20424;-82
2021/11/14 05:09:56;;;;;;;26.63;10.30;;;7.50;97.30;;;;;;5016528;28;20423;-83
2021/11/14 05:12:22;;;;;;;23.73;10.80;;;7.50;97.30;;;;;;5016299;28;20181;-83
2021/11/14 05:14:48;;;;;;;21.33;10.63;;;7.50;97.30;;;;;;5016114;28;20247;-83
2021/11/14 05:17:13;;;;;;;22.90;10.83;;;7.50;97.30;;;;;;5016139;28;20620;-83
2021/11/14 05:19:39;;;;;;;25.77;10.87;;;7.50;97.30;;;;;;5016587;28;20181;-83
2021/11/14 05:22:04;;;;;;;22.47;10.40;;;7.40;97.30;;;;;;5016535;28;20298;-82
2021/11/14 05:24:30;;;;;;;20.63;10.50;;;7.40;97.30;;;;;;5017815;28;20529;-82
2021/11/14 05:26:56;;;;;;;20.00;9.30;;;7.40;97.30;;;;;;5016355;28;20173;-82
2021/11/14 05:29:22;;;;;;;25.73;11.67;;;7.40;97.30;;;;;;5016378;28;20185;-82
2021/11/14 05:31:48;;;;;;;20.73;11.27;;;7.50;97.30;;;;;;5016537;28;20420;-83
2021/11/14 05:34:13;;;;;;;19.77;9.90;;;7.50;97.30;;;;;;5016338;28;20791;-82
2021/11/14 05:36:39;;;;;;;20.07;10.20;;;7.50;97.30;;;;;;5015934;28;20718;-82
2021/11/14 05:39:04;;;;;;;20.13;10.70;;;7.50;97.30;;;;;;5016069;28;20661;-83
2021/11/14 05:41:30;;;;;;;26.20;11.10;;;7.50;97.30;;;;;;5015850;28;20693;-82
2021/11/14 05:43:56;;;;;;;22.87;10.47;;;7.50;97.30;;;;;;5016054;28;20173;-82
2021/11/14 05:46:22;;;;;;;17.37;8.63;;;7.50;97.30;;;;;;5015794;28;20200;-82
2021/11/14 05:48:47;;;;;;;24.03;10.47;;;7.50;97.30;;;;;;5015693;28;20185;-83
2021/11/14 05:51:13;;;;;;;18.37;9.97;;;7.50;97.30;;;;;;5015781;28;20474;-82
2021/11/14 05:53:38;;;;;;;17.73;8.93;;;7.50;97.30;;;;;;5016008;28;20196;-83
2021/11/14 05:56:05;;;;;;;22.00;10.13;;;7.50;97.30;;;;;;5015839;28;20209;-82
2021/11/14 05:58:58;;;;;;;22.87;10.57;;;7.50;97.30;;;;;;5015887;28;20177;-82
2021/11/14 06:01:29;;;;;;;17.00;9.00;;;7.40;97.30;;;;;;5015687;28;20427;-82
2021/11/14 06:06:39;;;;;;;22.60;10.30;;;7.50;97.30;;;;;;5017608;28;20489;-83
2021/11/14 06:09:06;;;;;;;23.07;11.33;;;7.50;97.30;;;;;;5015644;28;20993;-82
2021/11/14 06:11:32;;;;;;;38.20;12.10;;;7.40;97.30;;;;;;5017098;28;20191;-82
2021/11/14 06:13:57;;;;;;;24.30;11.83;;;7.40;97.30;;;;;;5015501;28;20424;-82
2021/11/14 06:16:23;;;;;;;29.60;13.77;;;7.40;97.30;;;;;;5015400;28;20205;-82
2021/11/14 06:18:48;;;;;;;29.37;12.73;;;7.40;97.30;;;;;;5016925;28;20173;-82
2021/11/14 06:21:14;;;;;;;24.93;11.13;;;7.40;97.30;;;;;;5015978;28;20177;-82
2021/11/14 06:23:40;;;;;;;21.33;11.07;;;7.40;97.30;;;;;;5016114;28;20181;-83
2021/11/14 06:26:06;;;;;;;20.37;10.27;;;7.40;97.30;;;;;;5015546;28;20208;-82
2021/11/14 06:28:31;;;;;;;23.23;10.77;;;7.40;97.30;;;;;;5015801;28;20279;-82
2021/11/14 06:30:57;;;;;;;20.37;11.67;;;7.40;97.30;;;;;;5016199;28;20249;-83
2021/11/14 06:33:23;;;;;;;24.80;11.70;;;7.40;97.30;;;;;;5015738;28;20282;-82
2021/11/14 06:35:49;;;;;;;24.50;10.83;;;7.40;97.30;;;;;;5017958;28;20562;-82
2021/11/14 06:38:15;;;;;;;23.80;11.70;;;7.40;97.30;;;;;;5016058;28;20173;-83
2021/11/14 06:40:40;;;;;;;28.80;11.07;;;7.40;97.30;;;;;;5017439;28;20181;-82
2021/11/14 06:43:06;;;;;;;21.00;10.27;;;7.50;97.30;;;;;;5017707;28;20439;-83
2021/11/14 06:45:32;;;;;;;22.90;9.90;;;7.50;97.30;;;;;;5017419;28;20292;-83
2021/11/14 06:47:58;;;;;;;25.30;11.73;;;7.50;97.30;;;;;;5017851;28;20192;-83
2021/11/14 06:50:25;;;;;;;20.90;10.00;;;7.50;97.30;;;;;;5015345;28;20181;-83
2021/11/14 06:52:50;;;;;;;21.17;10.93;;;7.50;97.30;;;;;;5014937;28;20424;-84
2021/11/14 06:55:17;;;;;;;20.73;9.03;;;7.50;97.30;;;;;;5015145;28;20507;-83
2021/11/14 06:57:44;;;;;;;27.43;11.90;;;7.50;97.30;;;;;;5014791;28;20208;-82
2021/11/14 07:00:17;;;;;;;20.30;10.50;;;7.50;97.30;;;;;;5014441;28;20412;-83
2021/11/14 07:02:43;;;;;;;23.90;10.83;;;7.50;97.30;;;;;;5014658;28;20416;-82
2021/11/14 07:05:10;;;;;;;28.83;12.17;;;7.50;97.30;;;;;;5015657;28;20917;-83
2021/11/14 07:07:36;;;;;;;20.90;10.43;;;7.50;97.30;;;;;;5015560;28;20224;-83
2021/11/14 07:10:04;;;;;;;23.97;10.87;;;7.60;97.30;;;;;;5014474;28;20426;-84
2021/11/14 07:12:30;;;;;;;24.23;11.07;;;7.60;97.30;;;;;;5015576;28;20504;-83
2021/11/14 07:14:56;;;;;;;22.73;10.83;;;7.60;97.30;;;;;;5016629;28;20427;-82
2021/11/14 07:17:22;;;;;;;26.57;10.70;;;7.60;97.30;;;;;;5013822;28;20828;-85
2021/11/14 07:19:49;;;;;;;25.40;11.40;;;7.60;97.30;;;;;;5014623;28;20173;-83
2021/11/14 07:22:14;;;;;;;19.77;10.07;;;7.60;97.30;;;;;;5014051;28;20834;-83
2021/11/14 07:24:40;;;;;;;24.17;10.50;;;7.60;97.30;;;;;;5014143;28;20404;-84
2021/11/14 07:27:06;;;;;;;22.60;10.87;;;7.60;97.30;;;;;;5015326;28;20177;-83
2021/11/14 07:29:32;;;;;;;25.10;10.93;;;7.60;97.30;;;;;;5013863;28;20184;-83
2021/11/14 07:31:57;;;;;;;23.77;10.47;;;7.60;97.30;;;;;;5013580;28;20406;-82
2021/11/14 07:34:23;;;;;;;22.73;11.37;;;7.60;97.30;;;;;;5013653;28;20543;-84
2021/11/14 07:36:49;;;;;;;27.10;12.07;;;7.70;97.30;;;;;;5013799;28;20659;-83
2021/11/14 07:39:15;;;;;;;23.63;12.60;;;7.70;97.30;;;;;;5013916;28;20225;-82
2021/11/14 07:41:40;;;;;;;24.47;11.00;;;7.70;97.30;;;;;;5013851;28;20185;-82
2021/11/14 07:44:06;;;;;;;27.83;11.67;;;7.80;97.30;;;;;;5015263;28;20200;-83
2021/11/14 07:46:31;;;;;;;28.00;14.20;;;7.80;97.30;;;;;;5014789;28;20227;-83
2021/11/14 07:48:57;;;;;;;22.80;13.00;;;7.80;97.30;;;;;;5013497;28;20243;-82
2021/11/14 07:51:23;;;;;;;24.10;11.63;;;7.90;97.30;;;;;;5014326;28;20281;-82
2021/11/14 07:53:49;;;;;;;25.93;12.00;;;7.90;97.30;;;;;;5014482;28;20184;-83
2021/11/14 07:56:14;;;;;;;27.63;11.70;;;7.90;97.30;;;;;;5013920;28;20209;-83
2021/11/14 07:58:41;;;;;;;31.40;12.30;;;7.90;97.30;;;;;;5015079;28;20201;-83
2021/11/14 08:01:07;;;;;;;24.57;11.70;;;7.90;97.30;;;;;;5013977;28;20188;-83
2021/11/14 08:03:32;;;;;;;29.20;14.10;;;7.90;97.30;;;;;;5013411;28;20424;-84
2021/11/14 08:06:02;;;;;;;26.27;13.67;;;7.90;97.30;;;;;;5013519;28;20866;-83
2021/11/14 08:08:28;;;;;;;24.00;12.13;;;7.90;97.30;;;;;;5013326;28;20268;-83
2021/11/14 08:10:54;;;;;;;22.37;11.90;;;7.90;97.30;;;;;;5016811;28;20440;-84
2021/11/14 08:13:20;;;;;;;21.60;12.10;;;8.00;97.30;;;;;;5013468;28;20181;-83
2021/11/14 08:15:46;;;;;;;26.20;12.80;;;7.90;97.30;;;;;;5013290;28;20555;-82
2021/11/14 08:18:12;;;;;;;23.60;11.90;;;8.00;97.30;;;;;;5013181;28;20411;-83
2021/11/14 08:20:38;;;;;;;23.97;11.43;;;8.00;97.30;;;;;;5013492;28;20431;-83
2021/11/14 08:23:06;;;;;;;24.43;12.17;;;8.00;97.30;;;;;;5015401;28;20173;-84
2021/11/14 08:25:33;;;;;;;23.97;11.30;;;8.00;97.30;;;;;;5014559;28;20442;-84
2021/11/14 08:27:58;;;;;;;24.70;11.00;;;8.10;97.30;;;;;;5014515;28;20421;-83
2021/11/14 08:30:24;;;;;;;26.37;13.87;;;8.10;97.30;;;;;;5013413;28;20412;-83
2021/11/14 08:32:51;;;;;;;27.93;14.00;;;8.10;97.30;;;;;;5012744;28;20286;-83
2021/11/14 08:35:18;;;;;;;30.60;15.27;;;8.20;97.30;;;;;;5014010;28;20201;-84
2021/11/14 08:37:46;;;;;;;31.20;13.67;;;8.20;97.30;;;;;;5013805;28;20581;-83
2021/11/14 08:40:13;;;;;;;24.23;11.20;;;8.30;97.30;;;;;;5014508;28;20412;-83
2021/11/14 08:42:40;;;;;;;30.20;12.93;;;8.40;97.30;;;;;;5017061;28;20814;-83
2021/11/14 08:45:07;;;;;;;27.90;11.93;;;8.50;97.30;;;;;;5017533;28;20467;-85
2021/11/14 08:47:33;;;;;;;24.83;13.77;;;8.50;97.30;;;;;;5018747;28;20419;-83
2021/11/14 08:49:59;;;;;;;28.47;12.17;;;8.60;97.30;;;;;;5017331;28;20482;-83
2021/11/14 08:52:26;;;;;;;26.10;13.03;;;8.60;97.30;;;;;;5017231;28;20435;-83
2021/11/14 08:54:51;;;;;;;22.87;12.00;;;8.60;97.30;;;;;;5017047;28;20444;-83
2021/11/14 08:57:18;;;;;;;26.63;13.50;;;8.60;97.30;;;;;;5016096;28;20490;-83
2021/11/14 08:59:44;;;;;;;25.50;13.87;;;8.60;97.30;;;;;;5018314;28;20701;-83
2021/11/14 09:02:10;;;;;;;28.80;15.07;;;8.60;97.30;;;;;;5017281;28;20462;-83
2021/11/14 09:04:36;;;;;;;24.80;12.67;;;8.60;97.30;;;;;;5017224;28;20747;-83
2021/11/14 09:07:02;;;;;;;28.60;13.20;;;8.60;97.30;;;;;;5015051;28;20213;-83
2021/11/14 09:09:28;;;;;;;22.87;11.60;;;8.60;97.30;;;;;;5014726;28;20452;-83
2021/11/14 09:11:54;;;;;;;36.03;13.77;;;8.60;97.30;;;;;;5016244;28;20371;-84
2021/11/14 09:14:21;;;;;;;26.20;12.63;;;8.60;97.30;;;;;;5015454;28;20273;-83
2021/11/14 09:16:50;;;;;;;25.80;11.83;;;8.60;97.30;;;;;;5014671;28;20467;-83
2021/11/14 09:19:16;;;;;;;28.70;12.10;;;8.60;97.30;;;;;;5014924;28;21249;-83
2021/11/14 09:21:42;;;;;;;28.30;12.63;;;8.60;97.30;;;;;;5014850;28;20414;-83
2021/11/14 09:24:08;;;;;;;28.00;12.67;;;8.70;97.30;;;;;;5015862;28;20181;-83
2021/11/14 09:26:34;;;;;;;24.40;12.30;;;8.70;97.30;;;;;;5016042;28;20197;-82
2021/11/14 09:29:00;;;;;;;22.60;11.70;;;8.70;97.30;;;;;;5016027;28;20415;-83
2021/11/14 09:31:25;;;;;;;22.57;11.33;;;8.70;97.30;;;;;;5016026;28;20428;-83
2021/11/14 09:33:54;;;;;;;28.47;12.90;;;8.80;97.30;;;;;;5016940;28;20246;-83
2021/11/14 09:36:21;;;;;;;28.80;12.90;;;8.70;97.30;;;;;;5015795;28;20212;-83
2021/11/14 09:38:48;;;;;;;22.23;12.37;;;8.80;97.30;;;;;;5015992;28;20503;-83
2021/11/14 09:41:14;;;;;;;22.00;12.30;;;8.80;97.30;;;;;;5015708;28;20969;-83
2021/11/14 09:43:40;;;;;;;26.50;12.60;;;8.80;97.30;;;;;;5016312;28;20404;-83
2021/11/14 09:46:06;;;;;;;31.17;14.17;;;8.80;97.30;;;;;;5016067;28;20436;-83
2021/11/14 09:48:32;;;;;;;26.90;11.70;;;8.80;97.30;;;;;;5016044;28;20423;-83
2021/11/14 09:50:58;;;;;;;27.10;12.17;;;8.80;97.30;;;;;;5017175;28;20420;-83
2021/11/14 09:53:34;;;;;;;25.40;12.63;;;8.80;97.30;;;;;;5015276;28;20412;-82
2021/11/14 09:56:01;;;;;;;31.97;13.80;;;8.80;97.30;;;;;;5016027;28;20497;-83
2021/11/14 09:58:27;;;;;;;31.20;13.50;;;8.80;97.30;;;;;;5015641;28;20416;-83
2021/11/14 10:00:53;;;;;;;30.80;13.93;;;8.80;97.30;;;;;;5015584;28;20991;-83
2021/11/14 10:03:20;;;;;;;29.80;14.60;;;8.80;97.30;;;;;;5015508;28;20185;-83
2021/11/14 10:05:50;;;;;;;29.23;13.67;;;8.80;97.30;;;;;;5014920;28;20459;-83
2021/11/14 10:08:17;;;;;;;29.27;14.20;;;8.90;97.30;;;;;;5015585;28;20424;-83
2021/11/14 10:10:53;;;;;;;28.33;14.70;;;8.90;97.30;;;;;;5015454;28;20428;-83
2021/11/14 10:13:28;;;;;;;31.23;14.23;;;8.90;97.30;;;;;;5015290;28;20416;-82
2021/11/14 10:16:09;;;;;;;28.53;14.40;;;8.90;97.30;;;;;;5015212;28;20478;-83
2021/11/14 10:18:36;;;;;;;28.80;14.30;;;8.90;97.30;;;;;;5015219;28;20495;-83
2021/11/14 10:21:03;;;;;;;33.57;14.97;;;9.00;97.30;;;;;;5016264;28;20858;-83
2021/11/14 10:23:31;;;;;;;31.30;14.17;;;9.00;97.30;;;;;;5016387;28;20825;-83
2021/11/14 10:26:02;;;;;;;29.03;14.10;;;9.00;97.30;;;;;;5015783;28;20510;-83
2021/11/14 10:28:31;;;;;;;33.73;14.77;;;9.00;97.30;;;;;;5015829;28;20725;-83
2021/11/14 10:30:57;;;;;;;33.73;15.80;;;9.00;97.30;;;;;;5014806;28;20463;-83
2021/11/14 10:33:23;;;;;;;36.90;14.20;;;9.00;97.30;;;;;;5015557;28;20475;-83
2021/11/14 10:35:54;;;;;;;32.90;14.67;;;9.00;97.30;;;;;;5015685;28;20312;-83
2021/11/14 10:38:25;;;;;;;33.50;14.90;;;9.00;97.30;;;;;;5015429;28;20410;-83
2021/11/14 10:40:55;;;;;;;37.37;14.77;;;9.00;97.30;;;;;;5017304;28;20408;-83
2021/11/14 10:43:23;;;;;;;32.00;15.50;;;9.00;97.30;;;;;;5015521;28;20424;-83
2021/11/14 10:45:51;;;;;;;34.93;16.67;;;9.00;97.30;;;;;;5014852;28;20444;-83
2021/11/14 10:48:22;;;;;;;37.33;16.17;;;9.00;97.30;;;;;;5015859;28;20420;-82
2021/11/14 10:50:52;;;;;;;34.67;15.27;;;9.00;97.30;;;;;;5016967;28;20504;-83
2021/11/14 10:53:20;;;;;;;33.83;14.87;;;9.10;97.30;;;;;;5015846;28;20789;-83
2021/11/14 10:55:48;;;;;;;34.00;15.40;;;9.10;97.30;;;;;;5023348;28;20458;-83
2021/11/14 10:58:16;;;;;;;33.00;15.60;;;9.10;97.30;;;;;;5035167;28;20411;-83
2021/11/14 11:00:44;;;;;;;35.53;13.80;;;9.20;97.30;;;;;;5017487;28;20519;-83
2021/11/14 11:03:11;;;;;;;32.63;14.50;;;9.20;97.30;;;;;;5014131;28;20475;-83
2021/11/14 11:05:37;;;;;;;34.47;14.73;;;9.20;97.30;;;;;;5012951;28;20436;-82
2021/11/14 11:08:10;;;;;;;34.27;14.07;;;9.30;97.30;;;;;;5015720;28;20419;-83
2021/11/14 11:10:57;;;;;;;35.77;15.10;;;9.30;97.30;;;;;;5024185;28;20421;-80
2021/11/14 11:13:43;;;;;;;32.00;16.30;;;9.20;97.30;;;;;;5023249;28;20491;-82
2021/11/14 11:16:26;;;;;;;33.17;15.40;;;9.30;97.30;;;;;;5034061;28;20459;-83
2021/11/14 11:19:10;;;;;;;33.60;15.10;;;9.30;97.30;;;;;;5023573;28;20419;-83
2021/11/14 11:21:39;;;;;;;32.87;15.80;;;9.30;97.30;;;;;;5024381;28;20417;-83
2021/11/14 11:24:15;;;;;;;34.87;16.30;;;9.30;97.30;;;;;;5024283;28;20416;-83
2021/11/14 11:27:06;;;;;;;35.33;16.27;;;9.40;97.30;;;;;;5041275;28;20965;-83
2021/11/14 11:29:34;;;;;;;34.10;15.57;;;9.40;97.30;;;;;;5041348;28;20423;-83
2021/11/14 11:32:00;;;;;;;39.00;17.43;;;9.40;97.30;;;;;;5023353;28;20427;-83
2021/11/14 11:34:27;;;;;;;41.07;18.07;;;9.30;97.30;;;;;;5022952;28;20420;-83
2021/11/14 11:36:54;;;;;;;35.23;16.20;;;9.30;97.30;;;;;;5022525;28;20532;-84
2021/11/14 11:39:20;;;;;;;37.00;14.97;;;9.30;97.30;;;;;;5023355;28;20419;-83
2021/11/14 11:41:48;;;;;;;44.43;17.13;;;9.30;97.30;;;;;;5023819;28;20566;-83
2021/11/14 11:44:16;;;;;;;33.57;14.77;;;9.30;97.30;;;;;;5024911;28;20927;-83
2021/11/14 11:46:44;;;;;;;35.00;17.43;;;9.30;97.30;;;;;;5020854;28;20475;-83
2021/11/14 11:49:14;;;;;;;34.97;14.60;;;9.30;97.30;;;;;;5025413;28;20416;-83
2021/11/14 11:51:46;;;;;;;36.33;14.90;;;9.30;97.30;;;;;;5023946;28;20421;-83
2021/11/14 11:54:15;;;;;;;32.83;15.70;;;9.30;97.30;;;;;;5025144;28;20465;-81
2021/11/14 11:56:57;;;;;;;34.00;15.50;;;9.30;97.30;;;;;;5022975;28;20463;-83
2021/11/14 11:59:37;;;;;;;37.63;17.17;;;9.40;97.30;;;;;;5023215;28;20423;-83
2021/11/14 12:02:10;;;;;;;37.00;16.37;;;9.40;97.30;;;;;;5021761;28;20419;-83
2021/11/14 12:04:39;;;;;;;30.60;14.77;;;9.40;97.30;;;;;;5022533;28;20932;-83
2021/11/14 12:07:07;;;;;;;30.73;15.43;;;9.40;97.30;;;;;;5027524;28;20419;-83
2021/11/14 12:09:55;;;;;;;32.63;15.23;;;9.40;97.30;;;;;;5024314;28;20415;-83
2021/11/14 12:12:32;;;;;;;37.37;16.00;;;9.50;97.30;;;;;;5022487;28;20427;-83
2021/11/14 12:15:13;;;;;;;34.37;15.97;;;9.40;97.30;;;;;;5025519;28;21024;-83
2021/11/14 12:17:47;;;;;;;35.93;15.53;;;9.40;97.30;;;;;;5038872;28;20806;-84
2021/11/14 12:20:14;;;;;;;33.80;14.50;;;9.40;97.30;;;;;;5019644;28;20424;-82
2021/11/14 12:22:44;;;;;;;35.10;15.47;;;9.40;97.30;;;;;;5024392;28;20469;-83
2021/11/14 12:25:25;;;;;;;36.00;14.20;;;9.40;97.30;;;;;;5024068;28;20485;-83
2021/11/14 12:28:02;;;;;;;33.23;14.90;;;9.40;97.30;;;;;;5021211;28;20498;-82
2021/11/14 12:30:29;;;;;;;32.50;14.97;;;9.40;97.30;;;;;;5023828;28;20450;-83
2021/11/14 12:32:56;;;;;;;39.70;17.37;;;9.30;97.30;;;;;;5023455;28;20455;-83
2021/11/14 12:35:26;;;;;;;36.00;15.60;;;9.30;97.30;;;;;;5024792;28;20439;-82
2021/11/14 12:38:02;;;;;;;31.60;14.80;;;9.30;97.30;;;;;;5022609;28;20404;-82
2021/11/14 12:40:33;;;;;;;35.87;15.60;;;9.30;97.30;;;;;;5022184;28;20447;-83
2021/11/14 12:43:17;;;;;;;28.40;14.60;;;9.30;97.30;;;;;;5018700;28;20420;-83
2021/11/14 12:45:57;;;;;;;33.27;14.80;;;9.30;97.30;;;;;;5029266;28;20472;-83